sensor_id;sensor_type;location;lat;lon;timestamp;temperature;humidity
37528;DHT22;23372;52.050;4.810;2022-09-19T00:01:54;9.80;99.90
37528;DHT22;23372;52.050;4.810;2022-09-19T00:04:22;9.80;99.90
37528;DHT22;23372;52.050;4.810;2022-09-19T00:06:49;9.80;99.90
37528;DHT22;23372;52.050;4.810;2022-09-19T00:09:18;9.80;99.90
37528;DHT22;23372;52.050;4.810;2022-09-19T00:11:46;9.80;99.90
37528;DHT22;23372;52.050;4.810;2022-09-19T00:14:14;9.90;99.90
37528;DHT22;23372;52.050;4.810;2022-09-19T00:16:41;9.90;99.90
37528;DHT22;23372;52.050;4.810;2022-09-19T00:19:11;9.80;99.90
37528;DHT22;23372;52.050;4.810;2022-09-19T00:21:40;9.80;99.90
37528;DHT22;23372;52.050;4.810;2022-09-19T00:24:26;9.70;99.90
37528;DHT22;23372;52.050;4.810;2022-09-19T00:27:13;9.60;99.90
37528;DHT22;23372;52.050;4.810;2022-09-19T00:29:39;9.60;99.90
37528;DHT22;23372;52.050;4.810;2022-09-19T00:32:06;9.60;99.90
37528;DHT22;23372;52.050;4.810;2022-09-19T00:34:33;9.60;99.90
37528;DHT22;23372;52.050;4.810;2022-09-19T00:36:58;9.70;99.90
37528;DHT22;23372;52.050;4.810;2022-09-19T00:39:24;9.70;99.90
37528;DHT22;23372;52.050;4.810;2022-09-19T00:41:50;9.70;99.90
37528;DHT22;23372;52.050;4.810;2022-09-19T00:49:36;9.90;99.90
37528;DHT22;23372;52.050;4.810;2022-09-19T00:52:06;9.90;99.90
37528;DHT22;23372;52.050;4.810;2022-09-19T00:54:36;9.90;99.90
37528;DHT22;23372;52.050;4.810;2022-09-19T00:57:06;9.80;99.90
37528;DHT22;23372;52.050;4.810;2022-09-19T00:59:35;9.90;99.90
37528;DHT22;23372;52.050;4.810;2022-09-19T01:02:02;9.90;99.90
37528;DHT22;23372;52.050;4.810;2022-09-19T01:04:29;9.90;99.90
37528;DHT22;23372;52.050;4.810;2022-09-19T01:10:08;10.00;99.90
37528;DHT22;23372;52.050;4.810;2022-09-19T01:15:58;10.00;99.90
37528;DHT22;23372;52.050;4.810;2022-09-19T01:18:43;9.90;99.90
37528;DHT22;23372;52.050;4.810;2022-09-19T01:21:40;10.00;99.90
37528;DHT22;23372;52.050;4.810;2022-09-19T01:24:46;10.00;99.90
37528;DHT22;23372;52.050;4.810;2022-09-19T01:27:30;9.90;99.90
37528;DHT22;23372;52.050;4.810;2022-09-19T01:30:07;9.80;99.90
37528;DHT22;23372;52.050;4.810;2022-09-19T01:33:06;9.80;99.90
37528;DHT22;23372;52.050;4.810;2022-09-19T01:35:35;9.70;99.90
37528;DHT22;23372;52.050;4.810;2022-09-19T01:38:09;9.70;99.90
37528;DHT22;23372;52.050;4.810;2022-09-19T01:40:37;9.70;99.90
37528;DHT22;23372;52.050;4.810;2022-09-19T01:43:03;9.60;99.90
37528;DHT22;23372;52.050;4.810;2022-09-19T01:45:35;9.60;99.90
37528;DHT22;23372;52.050;4.810;2022-09-19T01:48:25;9.60;99.90
37528;DHT22;23372;52.050;4.810;2022-09-19T01:53:34;9.60;99.90
37528;DHT22;23372;52.050;4.810;2022-09-19T01:56:11;9.60;99.90
37528;DHT22;23372;52.050;4.810;2022-09-19T01:58:39;9.60;99.90
37528;DHT22;23372;52.050;4.810;2022-09-19T02:01:14;9.60;99.90
37528;DHT22;23372;52.050;4.810;2022-09-19T02:03:50;9.70;99.90
37528;DHT22;23372;52.050;4.810;2022-09-19T02:06:28;9.70;99.90
37528;DHT22;23372;52.050;4.810;2022-09-19T02:09:10;9.70;99.90
37528;DHT22;23372;52.050;4.810;2022-09-19T02:11:38;9.80;99.90
37528;DHT22;23372;52.050;4.810;2022-09-19T02:14:09;9.80;99.90
37528;DHT22;23372;52.050;4.810;2022-09-19T02:16:51;9.80;99.90
37528;DHT22;23372;52.050;4.810;2022-09-19T02:19:25;9.90;99.90
37528;DHT22;23372;52.050;4.810;2022-09-19T02:21:55;9.90;99.90
37528;DHT22;23372;52.050;4.810;2022-09-19T02:24:27;9.90;99.90
37528;DHT22;23372;52.050;4.810;2022-09-19T02:27:01;10.00;99.90
37528;DHT22;23372;52.050;4.810;2022-09-19T02:29:34;10.10;99.90
37528;DHT22;23372;52.050;4.810;2022-09-19T02:32:02;10.20;99.90
37528;DHT22;23372;52.050;4.810;2022-09-19T02:34:28;10.30;99.90
37528;DHT22;23372;52.050;4.810;2022-09-19T02:37:03;10.40;99.90
37528;DHT22;23372;52.050;4.810;2022-09-19T02:39:47;10.50;99.90
37528;DHT22;23372;52.050;4.810;2022-09-19T02:42:43;10.60;99.90
37528;DHT22;23372;52.050;4.810;2022-09-19T02:45:58;10.70;99.90
37528;DHT22;23372;52.050;4.810;2022-09-19T02:51:17;10.90;99.90
37528;DHT22;23372;52.050;4.810;2022-09-19T02:53:59;10.90;99.90
37528;DHT22;23372;52.050;4.810;2022-09-19T02:56:28;11.00;99.90
37528;DHT22;23372;52.050;4.810;2022-09-19T02:59:03;11.10;99.90
37528;DHT22;23372;52.050;4.810;2022-09-19T03:01:31;11.10;99.90
37528;DHT22;23372;52.050;4.810;2022-09-19T03:04:02;11.10;99.90
37528;DHT22;23372;52.050;4.810;2022-09-19T03:06:43;11.10;99.90
37528;DHT22;23372;52.050;4.810;2022-09-19T03:09:13;11.10;99.90
37528;DHT22;23372;52.050;4.810;2022-09-19T03:11:43;11.10;99.90
37528;DHT22;23372;52.050;4.810;2022-09-19T03:14:10;11.10;99.90
37528;DHT22;23372;52.050;4.810;2022-09-19T03:16:41;11.10;99.90
37528;DHT22;23372;52.050;4.810;2022-09-19T03:19:09;11.10;99.90
37528;DHT22;23372;52.050;4.810;2022-09-19T03:21:36;11.10;99.90
37528;DHT22;23372;52.050;4.810;2022-09-19T03:24:03;11.10;99.90
37528;DHT22;23372;52.050;4.810;2022-09-19T03:26:32;11.10;99.90
37528;DHT22;23372;52.050;4.810;2022-09-19T03:29:01;11.10;99.90
37528;DHT22;23372;52.050;4.810;2022-09-19T03:31:28;11.10;99.90
37528;DHT22;23372;52.050;4.810;2022-09-19T03:33:54;11.10;99.90
37528;DHT22;23372;52.050;4.810;2022-09-19T03:36:26;11.20;99.90
37528;DHT22;23372;52.050;4.810;2022-09-19T03:38:54;11.20;99.90
37528;DHT22;23372;52.050;4.810;2022-09-19T03:41:21;11.20;99.90
37528;DHT22;23372;52.050;4.810;2022-09-19T03:43:47;11.20;99.90
37528;DHT22;23372;52.050;4.810;2022-09-19T03:46:16;11.30;99.90
37528;DHT22;23372;52.050;4.810;2022-09-19T03:48:42;11.30;99.90
37528;DHT22;23372;52.050;4.810;2022-09-19T03:51:13;11.30;99.90
37528;DHT22;23372;52.050;4.810;2022-09-19T03:53:39;11.30;99.90
37528;DHT22;23372;52.050;4.810;2022-09-19T03:56:05;11.40;99.90
37528;DHT22;23372;52.050;4.810;2022-09-19T03:58:30;11.40;99.90
37528;DHT22;23372;52.050;4.810;2022-09-19T04:00:57;11.40;99.90
37528;DHT22;23372;52.050;4.810;2022-09-19T04:03:22;11.40;99.90
37528;DHT22;23372;52.050;4.810;2022-09-19T04:05:50;11.40;99.90
37528;DHT22;23372;52.050;4.810;2022-09-19T04:08:16;11.30;99.90
37528;DHT22;23372;52.050;4.810;2022-09-19T04:10:41;11.30;99.90
37528;DHT22;23372;52.050;4.810;2022-09-19T04:13:08;11.20;99.90
37528;DHT22;23372;52.050;4.810;2022-09-19T04:15:33;11.20;99.90
37528;DHT22;23372;52.050;4.810;2022-09-19T04:17:59;11.10;99.90
37528;DHT22;23372;52.050;4.810;2022-09-19T04:20:24;11.00;99.90
37528;DHT22;23372;52.050;4.810;2022-09-19T04:22:55;11.00;99.90
37528;DHT22;23372;52.050;4.810;2022-09-19T04:25:24;10.90;99.90
37528;DHT22;23372;52.050;4.810;2022-09-19T04:27:50;10.90;99.90
37528;DHT22;23372;52.050;4.810;2022-09-19T04:30:18;10.90;99.90
37528;DHT22;23372;52.050;4.810;2022-09-19T04:32:49;10.80;99.90
37528;DHT22;23372;52.050;4.810;2022-09-19T04:35:15;10.80;99.90
37528;DHT22;23372;52.050;4.810;2022-09-19T04:37:41;10.80;99.90
37528;DHT22;23372;52.050;4.810;2022-09-19T04:40:07;10.90;99.90
37528;DHT22;23372;52.050;4.810;2022-09-19T04:42:32;10.90;99.90
37528;DHT22;23372;52.050;4.810;2022-09-19T04:45:00;10.90;99.90
37528;DHT22;23372;52.050;4.810;2022-09-19T04:47:25;10.90;99.90
37528;DHT22;23372;52.050;4.810;2022-09-19T04:49:52;10.80;99.90
37528;DHT22;23372;52.050;4.810;2022-09-19T04:52:21;10.80;99.90
37528;DHT22;23372;52.050;4.810;2022-09-19T04:54:46;10.80;99.90
37528;DHT22;23372;52.050;4.810;2022-09-19T04:57:13;10.80;99.90
37528;DHT22;23372;52.050;4.810;2022-09-19T04:59:40;10.80;99.90
37528;DHT22;23372;52.050;4.810;2022-09-19T05:02:05;10.80;99.90
37528;DHT22;23372;52.050;4.810;2022-09-19T05:04:32;10.90;99.90
37528;DHT22;23372;52.050;4.810;2022-09-19T05:06:58;10.90;99.90
37528;DHT22;23372;52.050;4.810;2022-09-19T05:09:23;11.00;99.90
37528;DHT22;23372;52.050;4.810;2022-09-19T05:11:50;11.00;99.90
37528;DHT22;23372;52.050;4.810;2022-09-19T05:14:15;11.10;99.90
37528;DHT22;23372;52.050;4.810;2022-09-19T05:16:43;11.10;99.90
37528;DHT22;23372;52.050;4.810;2022-09-19T05:19:08;11.10;99.90
37528;DHT22;23372;52.050;4.810;2022-09-19T05:21:34;11.20;99.90
37528;DHT22;23372;52.050;4.810;2022-09-19T05:24:01;11.20;99.90
37528;DHT22;23372;52.050;4.810;2022-09-19T05:26:27;11.20;99.90
37528;DHT22;23372;52.050;4.810;2022-09-19T05:28:53;11.20;99.90
37528;DHT22;23372;52.050;4.810;2022-09-19T05:31:19;11.10;99.90
37528;DHT22;23372;52.050;4.810;2022-09-19T05:33:46;11.10;99.90
37528;DHT22;23372;52.050;4.810;2022-09-19T05:36:11;11.10;99.90
37528;DHT22;23372;52.050;4.810;2022-09-19T05:38:38;11.10;99.90
37528;DHT22;23372;52.050;4.810;2022-09-19T05:41:04;11.20;99.90
37528;DHT22;23372;52.050;4.810;2022-09-19T05:43:30;11.10;99.90
37528;DHT22;23372;52.050;4.810;2022-09-19T05:45:57;11.10;99.90
37528;DHT22;23372;52.050;4.810;2022-09-19T05:48:24;11.10;99.90
37528;DHT22;23372;52.050;4.810;2022-09-19T05:50:51;11.10;99.90
37528;DHT22;23372;52.050;4.810;2022-09-19T05:53:17;11.10;99.90
37528;DHT22;23372;52.050;4.810;2022-09-19T05:56:03;11.10;99.90
37528;DHT22;23372;52.050;4.810;2022-09-19T05:58:29;11.10;99.90
37528;DHT22;23372;52.050;4.810;2022-09-19T06:00:55;11.20;99.90
37528;DHT22;23372;52.050;4.810;2022-09-19T06:03:21;11.20;99.90
37528;DHT22;23372;52.050;4.810;2022-09-19T06:05:49;11.30;99.90
37528;DHT22;23372;52.050;4.810;2022-09-19T06:08:17;11.30;99.90
37528;DHT22;23372;52.050;4.810;2022-09-19T06:10:44;11.40;99.90
37528;DHT22;23372;52.050;4.810;2022-09-19T06:13:12;11.40;99.90
37528;DHT22;23372;52.050;4.810;2022-09-19T06:15:38;11.50;99.90
37528;DHT22;23372;52.050;4.810;2022-09-19T06:18:03;11.60;99.90
37528;DHT22;23372;52.050;4.810;2022-09-19T06:20:29;11.70;99.90
37528;DHT22;23372;52.050;4.810;2022-09-19T06:22:59;11.70;99.90
37528;DHT22;23372;52.050;4.810;2022-09-19T06:25:32;11.70;99.90
37528;DHT22;23372;52.050;4.810;2022-09-19T06:28:00;11.80;99.90
37528;DHT22;23372;52.050;4.810;2022-09-19T06:30:26;11.80;99.90
37528;DHT22;23372;52.050;4.810;2022-09-19T06:32:52;11.90;99.90
37528;DHT22;23372;52.050;4.810;2022-09-19T06:35:22;11.80;99.90
37528;DHT22;23372;52.050;4.810;2022-09-19T06:37:48;11.90;99.90
37528;DHT22;23372;52.050;4.810;2022-09-19T06:40:15;11.90;99.90
37528;DHT22;23372;52.050;4.810;2022-09-19T06:42:42;11.90;99.90
37528;DHT22;23372;52.050;4.810;2022-09-19T06:45:08;11.90;99.90
37528;DHT22;23372;52.050;4.810;2022-09-19T06:47:34;12.00;99.90
37528;DHT22;23372;52.050;4.810;2022-09-19T06:50:01;12.00;99.90
37528;DHT22;23372;52.050;4.810;2022-09-19T06:52:26;12.00;99.90
37528;DHT22;23372;52.050;4.810;2022-09-19T06:54:53;12.00;99.90
37528;DHT22;23372;52.050;4.810;2022-09-19T06:57:19;11.90;99.90
37528;DHT22;23372;52.050;4.810;2022-09-19T06:59:44;11.90;99.90
37528;DHT22;23372;52.050;4.810;2022-09-19T07:02:10;11.90;99.90
37528;DHT22;23372;52.050;4.810;2022-09-19T07:04:36;12.20;99.90
37528;DHT22;23372;52.050;4.810;2022-09-19T07:07:01;12.40;99.90
37528;DHT22;23372;52.050;4.810;2022-09-19T07:09:27;12.60;99.90
37528;DHT22;23372;52.050;4.810;2022-09-19T07:11:53;12.60;99.90
37528;DHT22;23372;52.050;4.810;2022-09-19T07:14:23;12.70;99.90
37528;DHT22;23372;52.050;4.810;2022-09-19T07:16:49;12.70;99.90
37528;DHT22;23372;52.050;4.810;2022-09-19T07:19:15;12.80;99.90
37528;DHT22;23372;52.050;4.810;2022-09-19T07:21:41;13.00;99.90
37528;DHT22;23372;52.050;4.810;2022-09-19T07:24:07;13.20;99.90
37528;DHT22;23372;52.050;4.810;2022-09-19T07:26:33;13.40;99.90
37528;DHT22;23372;52.050;4.810;2022-09-19T07:28:59;13.50;99.90
37528;DHT22;23372;52.050;4.810;2022-09-19T07:31:26;13.60;99.90
37528;DHT22;23372;52.050;4.810;2022-09-19T07:33:52;13.60;99.90
37528;DHT22;23372;52.050;4.810;2022-09-19T07:36:19;13.80;99.90
37528;DHT22;23372;52.050;4.810;2022-09-19T07:38:47;13.90;99.90
37528;DHT22;23372;52.050;4.810;2022-09-19T07:41:14;14.10;99.90
37528;DHT22;23372;52.050;4.810;2022-09-19T07:43:40;14.30;99.90
37528;DHT22;23372;52.050;4.810;2022-09-19T07:46:05;14.50;99.90
37528;DHT22;23372;52.050;4.810;2022-09-19T07:48:31;14.50;99.90
37528;DHT22;23372;52.050;4.810;2022-09-19T07:50:57;14.50;99.90
37528;DHT22;23372;52.050;4.810;2022-09-19T07:53:23;14.50;99.90
37528;DHT22;23372;52.050;4.810;2022-09-19T07:55:53;14.60;99.90
37528;DHT22;23372;52.050;4.810;2022-09-19T07:58:21;14.60;99.90
37528;DHT22;23372;52.050;4.810;2022-09-19T08:00:47;14.50;99.90
37528;DHT22;23372;52.050;4.810;2022-09-19T08:03:15;14.40;99.90
37528;DHT22;23372;52.050;4.810;2022-09-19T08:05:49;14.70;99.90
37528;DHT22;23372;52.050;4.810;2022-09-19T08:08:17;14.90;99.90
37528;DHT22;23372;52.050;4.810;2022-09-19T08:10:43;14.90;99.90
37528;DHT22;23372;52.050;4.810;2022-09-19T08:13:10;14.80;99.90
37528;DHT22;23372;52.050;4.810;2022-09-19T08:15:37;14.70;99.90
37528;DHT22;23372;52.050;4.810;2022-09-19T08:18:11;14.50;99.90
37528;DHT22;23372;52.050;4.810;2022-09-19T08:20:40;14.40;99.90
37528;DHT22;23372;52.050;4.810;2022-09-19T08:23:08;14.40;99.90
37528;DHT22;23372;52.050;4.810;2022-09-19T08:25:36;14.50;99.90
37528;DHT22;23372;52.050;4.810;2022-09-19T08:28:02;14.60;99.90
37528;DHT22;23372;52.050;4.810;2022-09-19T08:30:32;14.60;99.90
37528;DHT22;23372;52.050;4.810;2022-09-19T08:32:59;14.80;99.90
37528;DHT22;23372;52.050;4.810;2022-09-19T08:35:28;15.10;99.90
37528;DHT22;23372;52.050;4.810;2022-09-19T08:37:56;15.30;99.90
37528;DHT22;23372;52.050;4.810;2022-09-19T08:40:27;15.40;99.90
37528;DHT22;23372;52.050;4.810;2022-09-19T08:46:03;15.00;99.90
37528;DHT22;23372;52.050;4.810;2022-09-19T08:48:43;14.90;99.90
37528;DHT22;23372;52.050;4.810;2022-09-19T08:51:17;14.90;99.90
37528;DHT22;23372;52.050;4.810;2022-09-19T08:53:46;14.80;99.90
37528;DHT22;23372;52.050;4.810;2022-09-19T08:56:14;14.80;99.90
37528;DHT22;23372;52.050;4.810;2022-09-19T08:58:50;14.80;99.90
37528;DHT22;23372;52.050;4.810;2022-09-19T09:01:18;14.80;99.90
37528;DHT22;23372;52.050;4.810;2022-09-19T09:04:16;14.90;99.90
37528;DHT22;23372;52.050;4.810;2022-09-19T09:07:09;14.90;99.90
37528;DHT22;23372;52.050;4.810;2022-09-19T09:15:25;14.90;99.90
37528;DHT22;23372;52.050;4.810;2022-09-19T09:18:09;14.90;99.90
37528;DHT22;23372;52.050;4.810;2022-09-19T09:20:55;14.80;99.90
37528;DHT22;23372;52.050;4.810;2022-09-19T09:23:33;14.90;99.90
37528;DHT22;23372;52.050;4.810;2022-09-19T09:26:08;14.80;99.90
37528;DHT22;23372;52.050;4.810;2022-09-19T09:28:40;14.80;99.90
37528;DHT22;23372;52.050;4.810;2022-09-19T09:31:25;14.90;99.90
37528;DHT22;23372;52.050;4.810;2022-09-19T09:36:27;15.00;99.90
37528;DHT22;23372;52.050;4.810;2022-09-19T09:39:14;15.10;99.90
37528;DHT22;23372;52.050;4.810;2022-09-19T09:41:49;15.00;99.90
37528;DHT22;23372;52.050;4.810;2022-09-19T09:49:30;15.20;99.90
37528;DHT22;23372;52.050;4.810;2022-09-19T09:52:16;15.30;99.90
37528;DHT22;23372;52.050;4.810;2022-09-19T09:57:58;15.90;99.90
37528;DHT22;23372;52.050;4.810;2022-09-19T10:00:25;16.50;99.90
37528;DHT22;23372;52.050;4.810;2022-09-19T10:03:19;16.80;99.90
37528;DHT22;23372;52.050;4.810;2022-09-19T10:06:09;16.50;99.90
37528;DHT22;23372;52.050;4.810;2022-09-19T10:08:43;16.20;99.90
37528;DHT22;23372;52.050;4.810;2022-09-19T10:11:12;16.00;99.90
37528;DHT22;23372;52.050;4.810;2022-09-19T10:13:46;15.70;99.90
37528;DHT22;23372;52.050;4.810;2022-09-19T10:16:15;15.60;99.90
37528;DHT22;23372;52.050;4.810;2022-09-19T10:18:53;15.50;99.90
37528;DHT22;23372;52.050;4.810;2022-09-19T10:21:20;15.40;99.90
37528;DHT22;23372;52.050;4.810;2022-09-19T10:23:46;15.60;99.90
37528;DHT22;23372;52.050;4.810;2022-09-19T10:26:16;16.10;99.90
37528;DHT22;23372;52.050;4.810;2022-09-19T10:28:52;16.70;99.90
37528;DHT22;23372;52.050;4.810;2022-09-19T10:31:33;17.20;99.90
37528;DHT22;23372;52.050;4.810;2022-09-19T10:34:02;17.40;99.90
37528;DHT22;23372;52.050;4.810;2022-09-19T10:36:44;17.50;99.90
37528;DHT22;23372;52.050;4.810;2022-09-19T10:39:13;17.70;99.90
37528;DHT22;23372;52.050;4.810;2022-09-19T10:41:41;17.80;99.90
37528;DHT22;23372;52.050;4.810;2022-09-19T10:44:20;18.10;99.90
37528;DHT22;23372;52.050;4.810;2022-09-19T10:46:53;18.00;99.90
37528;DHT22;23372;52.050;4.810;2022-09-19T10:49:24;18.20;99.90
37528;DHT22;23372;52.050;4.810;2022-09-19T10:51:52;18.30;99.90
37528;DHT22;23372;52.050;4.810;2022-09-19T10:54:34;18.50;99.90
37528;DHT22;23372;52.050;4.810;2022-09-19T10:57:04;18.70;99.90
37528;DHT22;23372;52.050;4.810;2022-09-19T10:59:35;18.80;99.90
37528;DHT22;23372;52.050;4.810;2022-09-19T11:04:37;18.80;99.90
37528;DHT22;23372;52.050;4.810;2022-09-19T11:07:14;18.60;99.90
37528;DHT22;23372;52.050;4.810;2022-09-19T11:09:42;18.30;99.90
37528;DHT22;23372;52.050;4.810;2022-09-19T11:12:15;18.20;99.90
37528;DHT22;23372;52.050;4.810;2022-09-19T11:14:43;18.30;99.90
37528;DHT22;23372;52.050;4.810;2022-09-19T11:20:30;17.90;99.90
37528;DHT22;23372;52.050;4.810;2022-09-19T11:23:31;17.90;99.90
37528;DHT22;23372;52.050;4.810;2022-09-19T11:26:23;18.20;99.90
37528;DHT22;23372;52.050;4.810;2022-09-19T11:29:28;18.10;99.90
37528;DHT22;23372;52.050;4.810;2022-09-19T11:32:08;18.10;99.90
37528;DHT22;23372;52.050;4.810;2022-09-19T11:37:45;18.70;99.90
37528;DHT22;23372;52.050;4.810;2022-09-19T11:40:38;18.60;99.90
37528;DHT22;23372;52.050;4.810;2022-09-19T11:43:28;19.10;99.90
37528;DHT22;23372;52.050;4.810;2022-09-19T11:46:08;19.40;99.90
37528;DHT22;23372;52.050;4.810;2022-09-19T11:51:36;18.70;99.90
37528;DHT22;23372;52.050;4.810;2022-09-19T11:54:16;18.50;99.90
37528;DHT22;23372;52.050;4.810;2022-09-19T12:00:04;18.40;99.90
37528;DHT22;23372;52.050;4.810;2022-09-19T12:02:55;18.20;99.90
37528;DHT22;23372;52.050;4.810;2022-09-19T12:05:49;17.90;99.90
37528;DHT22;23372;52.050;4.810;2022-09-19T12:11:44;17.60;99.90
37528;DHT22;23372;52.050;4.810;2022-09-19T12:14:25;17.30;99.90
37528;DHT22;23372;52.050;4.810;2022-09-19T12:17:04;17.50;99.90
37528;DHT22;23372;52.050;4.810;2022-09-19T12:19:34;17.80;99.90
37528;DHT22;23372;52.050;4.810;2022-09-19T12:22:05;17.60;99.90
37528;DHT22;23372;52.050;4.810;2022-09-19T12:24:40;17.70;99.90
37528;DHT22;23372;52.050;4.810;2022-09-19T12:30:00;17.40;99.90
37528;DHT22;23372;52.050;4.810;2022-09-19T12:37:54;17.10;99.90
37528;DHT22;23372;52.050;4.810;2022-09-19T12:43:17;16.90;99.90
37528;DHT22;23372;52.050;4.810;2022-09-19T12:46:24;16.80;99.90
37528;DHT22;23372;52.050;4.810;2022-09-19T12:49:04;16.60;99.90
37528;DHT22;23372;52.050;4.810;2022-09-19T12:51:54;16.60;99.90
37528;DHT22;23372;52.050;4.810;2022-09-19T12:54:46;16.70;99.90
37528;DHT22;23372;52.050;4.810;2022-09-19T12:57:54;17.00;99.90
37528;DHT22;23372;52.050;4.810;2022-09-19T13:00:11;17.20;99.90
37528;DHT22;23372;52.050;4.810;2022-09-19T13:05:44;17.30;99.90
37528;DHT22;23372;52.050;4.810;2022-09-19T13:10:50;17.50;99.90
37528;DHT22;23372;52.050;4.810;2022-09-19T13:13:34;17.40;99.90
37528;DHT22;23372;52.050;4.810;2022-09-19T13:16:09;17.10;99.90
37528;DHT22;23372;52.050;4.810;2022-09-19T13:18:43;16.50;99.90
37528;DHT22;23372;52.050;4.810;2022-09-19T13:21:35;16.20;99.90
37528;DHT22;23372;52.050;4.810;2022-09-19T13:24:20;15.80;99.90
37528;DHT22;23372;52.050;4.810;2022-09-19T13:26:55;15.50;99.90
37528;DHT22;23372;52.050;4.810;2022-09-19T13:34:37;15.20;99.90
37528;DHT22;23372;52.050;4.810;2022-09-19T13:43:10;14.90;99.90
37528;DHT22;23372;52.050;4.810;2022-09-19T13:45:41;14.60;99.90
37528;DHT22;23372;52.050;4.810;2022-09-19T13:48:31;14.50;99.90
37528;DHT22;23372;52.050;4.810;2022-09-19T13:51:06;14.60;99.90
37528;DHT22;23372;52.050;4.810;2022-09-19T13:56:21;14.90;99.90
37528;DHT22;23372;52.050;4.810;2022-09-19T13:59:18;14.90;99.90
37528;DHT22;23372;52.050;4.810;2022-09-19T14:10:00;15.00;99.90
37528;DHT22;23372;52.050;4.810;2022-09-19T14:20:55;15.50;99.90
37528;DHT22;23372;52.050;4.810;2022-09-19T14:23:30;15.60;99.90
37528;DHT22;23372;52.050;4.810;2022-09-19T14:29:04;16.00;99.90
37528;DHT22;23372;52.050;4.810;2022-09-19T14:31:43;16.20;99.90
37528;DHT22;23372;52.050;4.810;2022-09-19T14:37:26;16.40;99.90
37528;DHT22;23372;52.050;4.810;2022-09-19T14:45:54;17.00;99.90
37528;DHT22;23372;52.050;4.810;2022-09-19T14:48:35;17.30;99.90
37528;DHT22;23372;52.050;4.810;2022-09-19T14:51:23;17.40;99.90
37528;DHT22;23372;52.050;4.810;2022-09-19T14:54:38;17.50;99.90
37528;DHT22;23372;52.050;4.810;2022-09-19T14:59:23;17.40;99.90
37528;DHT22;23372;52.050;4.810;2022-09-19T15:01:52;17.40;99.90
37528;DHT22;23372;52.050;4.810;2022-09-19T15:04:21;17.20;99.90
37528;DHT22;23372;52.050;4.810;2022-09-19T15:06:54;16.80;99.90
37528;DHT22;23372;52.050;4.810;2022-09-19T15:09:36;16.40;99.90
37528;DHT22;23372;52.050;4.810;2022-09-19T15:14:43;16.10;99.90
37528;DHT22;23372;52.050;4.810;2022-09-19T15:17:15;16.00;99.90
37528;DHT22;23372;52.050;4.810;2022-09-19T15:19:50;15.90;99.90
37528;DHT22;23372;52.050;4.810;2022-09-19T15:22:35;15.90;99.90
37528;DHT22;23372;52.050;4.810;2022-09-19T15:25:08;16.10;99.90
37528;DHT22;23372;52.050;4.810;2022-09-19T15:27:53;16.10;99.90
37528;DHT22;23372;52.050;4.810;2022-09-19T15:30:24;15.90;99.90
37528;DHT22;23372;52.050;4.810;2022-09-19T15:32:59;15.70;99.90
37528;DHT22;23372;52.050;4.810;2022-09-19T15:35:26;15.70;99.90
37528;DHT22;23372;52.050;4.810;2022-09-19T15:37:58;15.60;99.90
37528;DHT22;23372;52.050;4.810;2022-09-19T15:40:28;15.60;99.90
37528;DHT22;23372;52.050;4.810;2022-09-19T15:42:55;15.60;99.90
37528;DHT22;23372;52.050;4.810;2022-09-19T15:48:02;15.40;99.90
37528;DHT22;23372;52.050;4.810;2022-09-19T15:50:34;15.30;99.90
37528;DHT22;23372;52.050;4.810;2022-09-19T15:53:02;15.30;99.90
37528;DHT22;23372;52.050;4.810;2022-09-19T15:55:27;15.20;99.90
37528;DHT22;23372;52.050;4.810;2022-09-19T15:57:58;15.10;99.90
37528;DHT22;23372;52.050;4.810;2022-09-19T16:00:25;15.10;99.90
37528;DHT22;23372;52.050;4.810;2022-09-19T16:03:01;15.10;99.90
37528;DHT22;23372;52.050;4.810;2022-09-19T16:05:35;14.90;99.90
37528;DHT22;23372;52.050;4.810;2022-09-19T16:08:25;14.90;99.90
37528;DHT22;23372;52.050;4.810;2022-09-19T16:11:34;15.00;99.90
37528;DHT22;23372;52.050;4.810;2022-09-19T16:14:17;15.00;99.90
37528;DHT22;23372;52.050;4.810;2022-09-19T16:16:44;15.00;99.90
37528;DHT22;23372;52.050;4.810;2022-09-19T16:19:41;15.00;99.90
37528;DHT22;23372;52.050;4.810;2022-09-19T16:22:10;14.90;99.90
37528;DHT22;23372;52.050;4.810;2022-09-19T16:24:43;15.00;99.90
37528;DHT22;23372;52.050;4.810;2022-09-19T16:27:10;15.20;99.90
37528;DHT22;23372;52.050;4.810;2022-09-19T16:29:43;15.50;99.90
37528;DHT22;23372;52.050;4.810;2022-09-19T16:32:14;15.60;99.90
37528;DHT22;23372;52.050;4.810;2022-09-19T16:34:43;15.70;99.90
37528;DHT22;23372;52.050;4.810;2022-09-19T16:37:35;15.80;99.90
37528;DHT22;23372;52.050;4.810;2022-09-19T16:40:04;15.90;99.90
37528;DHT22;23372;52.050;4.810;2022-09-19T16:42:32;15.60;99.90
37528;DHT22;23372;52.050;4.810;2022-09-19T16:45:12;15.10;99.90
37528;DHT22;23372;52.050;4.810;2022-09-19T16:47:38;14.70;99.90
37528;DHT22;23372;52.050;4.810;2022-09-19T16:50:04;14.40;99.90
37528;DHT22;23372;52.050;4.810;2022-09-19T16:52:33;14.20;99.90
37528;DHT22;23372;52.050;4.810;2022-09-19T16:55:00;14.00;99.90
37528;DHT22;23372;52.050;4.810;2022-09-19T16:57:27;13.80;99.90
37528;DHT22;23372;52.050;4.810;2022-09-19T16:59:54;13.70;99.90
37528;DHT22;23372;52.050;4.810;2022-09-19T17:02:29;13.70;99.90
37528;DHT22;23372;52.050;4.810;2022-09-19T17:04:58;13.60;99.90
37528;DHT22;23372;52.050;4.810;2022-09-19T17:07:24;13.50;99.90
37528;DHT22;23372;52.050;4.810;2022-09-19T17:09:51;13.40;99.90
37528;DHT22;23372;52.050;4.810;2022-09-19T17:12:18;13.50;99.90
37528;DHT22;23372;52.050;4.810;2022-09-19T17:14:44;13.50;99.90
37528;DHT22;23372;52.050;4.810;2022-09-19T17:17:11;13.50;99.90
37528;DHT22;23372;52.050;4.810;2022-09-19T17:19:40;13.40;99.90
37528;DHT22;23372;52.050;4.810;2022-09-19T17:22:11;13.30;99.90
37528;DHT22;23372;52.050;4.810;2022-09-19T17:24:38;13.30;99.90
37528;DHT22;23372;52.050;4.810;2022-09-19T17:27:05;13.30;99.90
37528;DHT22;23372;52.050;4.810;2022-09-19T17:29:32;13.30;99.90
37528;DHT22;23372;52.050;4.810;2022-09-19T17:31:58;13.30;99.90
37528;DHT22;23372;52.050;4.810;2022-09-19T17:34:23;13.20;99.90
37528;DHT22;23372;52.050;4.810;2022-09-19T17:36:49;13.20;99.90
37528;DHT22;23372;52.050;4.810;2022-09-19T17:39:15;13.20;99.90
37528;DHT22;23372;52.050;4.810;2022-09-19T17:41:42;13.10;99.90
37528;DHT22;23372;52.050;4.810;2022-09-19T17:44:09;13.20;99.90
37528;DHT22;23372;52.050;4.810;2022-09-19T17:46:37;13.10;99.90
37528;DHT22;23372;52.050;4.810;2022-09-19T17:49:03;13.10;99.90
37528;DHT22;23372;52.050;4.810;2022-09-19T17:51:28;13.10;99.90
37528;DHT22;23372;52.050;4.810;2022-09-19T17:53:54;13.10;99.90
37528;DHT22;23372;52.050;4.810;2022-09-19T17:56:23;13.10;99.90
37528;DHT22;23372;52.050;4.810;2022-09-19T17:58:55;13.10;99.90
37528;DHT22;23372;52.050;4.810;2022-09-19T18:01:21;13.10;99.90
37528;DHT22;23372;52.050;4.810;2022-09-19T18:04:07;13.00;99.90
37528;DHT22;23372;52.050;4.810;2022-09-19T18:06:33;13.00;99.90